sensor_id;sensor_type;location;lat;lon;timestamp;P1;durP1;ratioP1;P2;durP2;ratioP2
41897;SDS011;27576;53.366;-1.498;2023-11-18T00:00:08;30.55;;;14.05;;
41897;SDS011;27576;53.366;-1.498;2023-11-18T00:02:37;31.13;;;16.17;;
41897;SDS011;27576;53.366;-1.498;2023-11-18T00:05:03;25.95;;;14.07;;
41897;SDS011;27576;53.366;-1.498;2023-11-18T00:07:29;25.58;;;15.13;;
41897;SDS011;27576;53.366;-1.498;2023-11-18T00:09:57;23.63;;;13.07;;
41897;SDS011;27576;53.366;-1.498;2023-11-18T00:12:22;29.20;;;15.95;;
41897;SDS011;27576;53.366;-1.498;2023-11-18T00:14:49;32.85;;;16.38;;
41897;SDS011;27576;53.366;-1.498;2023-11-18T00:17:14;32.63;;;16.02;;
41897;SDS011;27576;53.366;-1.498;2023-11-18T00:19:40;23.42;;;13.55;;
41897;SDS011;27576;53.366;-1.498;2023-11-18T00:22:07;30.38;;;15.20;;
41897;SDS011;27576;53.366;-1.498;2023-11-18T00:24:32;32.10;;;15.75;;
41897;SDS011;27576;53.366;-1.498;2023-11-18T00:26:59;26.38;;;13.75;;
41897;SDS011;27576;53.366;-1.498;2023-11-18T00:29:24;23.38;;;13.35;;
41897;SDS011;27576;53.366;-1.498;2023-11-18T00:31:50;18.50;;;11.32;;
41897;SDS011;27576;53.366;-1.498;2023-11-18T00:34:15;23.73;;;12.00;;
41897;SDS011;27576;53.366;-1.498;2023-11-18T00:36:41;24.10;;;12.82;;
41897;SDS011;27576;53.366;-1.498;2023-11-18T00:39:06;22.20;;;10.27;;
41897;SDS011;27576;53.366;-1.498;2023-11-18T00:41:31;30.70;;;10.68;;
41897;SDS011;27576;53.366;-1.498;2023-11-18T00:43:57;24.13;;;8.90;;
41897;SDS011;27576;53.366;-1.498;2023-11-18T00:46:22;16.45;;;9.57;;
41897;SDS011;27576;53.366;-1.498;2023-11-18T00:48:47;23.52;;;9.38;;
41897;SDS011;27576;53.366;-1.498;2023-11-18T00:51:13;19.20;;;8.20;;
41897;SDS011;27576;53.366;-1.498;2023-11-18T00:53:38;26.48;;;9.05;;
41897;SDS011;27576;53.366;-1.498;2023-11-18T00:56:07;16.30;;;7.78;;
41897;SDS011;27576;53.366;-1.498;2023-11-18T00:58:34;17.23;;;7.75;;
41897;SDS011;27576;53.366;-1.498;2023-11-18T01:01:05;20.27;;;8.52;;
41897;SDS011;27576;53.366;-1.498;2023-11-18T01:03:31;23.70;;;8.13;;
41897;SDS011;27576;53.366;-1.498;2023-11-18T01:05:57;19.65;;;7.60;;
41897;SDS011;27576;53.366;-1.498;2023-11-18T01:08:23;18.77;;;8.75;;
41897;SDS011;27576;53.366;-1.498;2023-11-18T01:10:49;17.60;;;7.85;;
41897;SDS011;27576;53.366;-1.498;2023-11-18T01:13:15;14.65;;;6.93;;
41897;SDS011;27576;53.366;-1.498;2023-11-18T01:15:40;19.23;;;8.15;;
41897;SDS011;27576;53.366;-1.498;2023-11-18T01:18:05;16.85;;;7.75;;
41897;SDS011;27576;53.366;-1.498;2023-11-18T01:20:31;16.15;;;7.63;;
41897;SDS011;27576;53.366;-1.498;2023-11-18T01:22:56;18.60;;;8.75;;
41897;SDS011;27576;53.366;-1.498;2023-11-18T01:25:22;15.45;;;7.90;;
41897;SDS011;27576;53.366;-1.498;2023-11-18T01:27:47;22.40;;;9.32;;
41897;SDS011;27576;53.366;-1.498;2023-11-18T01:30:13;15.75;;;8.40;;
41897;SDS011;27576;53.366;-1.498;2023-11-18T01:32:39;15.52;;;7.53;;
41897;SDS011;27576;53.366;-1.498;2023-11-18T01:35:08;15.43;;;7.53;;
41897;SDS011;27576;53.366;-1.498;2023-11-18T01:37:35;19.10;;;7.93;;
41897;SDS011;27576;53.366;-1.498;2023-11-18T01:40:01;26.50;;;9.40;;
41897;SDS011;27576;53.366;-1.498;2023-11-18T01:42:30;20.80;;;10.13;;
41897;SDS011;27576;53.366;-1.498;2023-11-18T01:44:56;18.55;;;9.77;;
41897;SDS011;27576;53.366;-1.498;2023-11-18T01:47:21;17.40;;;9.98;;
41897;SDS011;27576;53.366;-1.498;2023-11-18T01:49:47;16.08;;;8.18;;
41897;SDS011;27576;53.366;-1.498;2023-11-18T01:52:14;20.08;;;8.02;;
41897;SDS011;27576;53.366;-1.498;2023-11-18T01:54:39;17.65;;;8.32;;
41897;SDS011;27576;53.366;-1.498;2023-11-18T01:57:05;19.45;;;9.27;;
41897;SDS011;27576;53.366;-1.498;2023-11-18T01:59:31;13.50;;;7.38;;
41897;SDS011;27576;53.366;-1.498;2023-11-18T02:01:58;11.82;;;6.68;;
41897;SDS011;27576;53.366;-1.498;2023-11-18T02:04:25;14.85;;;6.57;;
41897;SDS011;27576;53.366;-1.498;2023-11-18T02:06:51;16.65;;;6.78;;
41897;SDS011;27576;53.366;-1.498;2023-11-18T02:09:18;12.85;;;5.75;;
41897;SDS011;27576;53.366;-1.498;2023-11-18T02:12:08;12.80;;;4.82;;
41897;SDS011;27576;53.366;-1.498;2023-11-18T02:14:59;9.93;;;5.70;;
41897;SDS011;27576;53.366;-1.498;2023-11-18T02:17:28;9.70;;;5.32;;
41897;SDS011;27576;53.366;-1.498;2023-11-18T02:19:55;10.90;;;5.00;;
41897;SDS011;27576;53.366;-1.498;2023-11-18T02:22:22;16.40;;;5.63;;
41897;SDS011;27576;53.366;-1.498;2023-11-18T02:24:49;8.13;;;4.30;;
41897;SDS011;27576;53.366;-1.498;2023-11-18T02:27:15;9.18;;;4.53;;
41897;SDS011;27576;53.366;-1.498;2023-11-18T02:29:42;5.85;;;3.85;;
41897;SDS011;27576;53.366;-1.498;2023-11-18T02:35:09;4.75;;;3.92;;
41897;SDS011;27576;53.366;-1.498;2023-11-18T02:37:39;7.43;;;4.13;;
41897;SDS011;27576;53.366;-1.498;2023-11-18T02:40:09;8.10;;;3.55;;
41897;SDS011;27576;53.366;-1.498;2023-11-18T02:42:43;6.35;;;4.32;;
41897;SDS011;27576;53.366;-1.498;2023-11-18T02:45:10;8.68;;;3.90;;
41897;SDS011;27576;53.366;-1.498;2023-11-18T02:47:41;8.50;;;4.18;;
41897;SDS011;27576;53.366;-1.498;2023-11-18T02:50:09;6.75;;;4.13;;
41897;SDS011;27576;53.366;-1.498;2023-11-18T02:52:38;5.68;;;3.90;;
41897;SDS011;27576;53.366;-1.498;2023-11-18T02:55:07;8.95;;;4.43;;
41897;SDS011;27576;53.366;-1.498;2023-11-18T02:57:33;4.70;;;3.25;;
41897;SDS011;27576;53.366;-1.498;2023-11-18T02:59:59;3.33;;;2.63;;
41897;SDS011;27576;53.366;-1.498;2023-11-18T03:02:28;5.05;;;2.97;;
41897;SDS011;27576;53.366;-1.498;2023-11-18T03:04:55;3.80;;;2.63;;
41897;SDS011;27576;53.366;-1.498;2023-11-18T03:07:21;4.25;;;2.22;;
41897;SDS011;27576;53.366;-1.498;2023-11-18T03:09:46;4.95;;;2.38;;
41897;SDS011;27576;53.366;-1.498;2023-11-18T03:12:12;3.00;;;2.55;;
41897;SDS011;27576;53.366;-1.498;2023-11-18T03:14:37;3.47;;;2.25;;
41897;SDS011;27576;53.366;-1.498;2023-11-18T03:17:03;2.78;;;2.10;;
41897;SDS011;27576;53.366;-1.498;2023-11-18T03:19:32;7.25;;;2.47;;
41897;SDS011;27576;53.366;-1.498;2023-11-18T03:21:59;2.90;;;2.20;;
41897;SDS011;27576;53.366;-1.498;2023-11-18T03:24:25;3.60;;;2.45;;
41897;SDS011;27576;53.366;-1.498;2023-11-18T03:26:50;4.32;;;2.60;;
41897;SDS011;27576;53.366;-1.498;2023-11-18T03:29:16;2.53;;;2.33;;
41897;SDS011;27576;53.366;-1.498;2023-11-18T03:31:41;3.63;;;2.10;;
41897;SDS011;27576;53.366;-1.498;2023-11-18T03:34:09;4.82;;;2.63;;
41897;SDS011;27576;53.366;-1.498;2023-11-18T03:36:35;3.70;;;1.90;;
41897;SDS011;27576;53.366;-1.498;2023-11-18T03:39:00;3.80;;;2.60;;
41897;SDS011;27576;53.366;-1.498;2023-11-18T03:41:26;5.30;;;2.30;;
41897;SDS011;27576;53.366;-1.498;2023-11-18T03:43:52;3.83;;;2.45;;
41897;SDS011;27576;53.366;-1.498;2023-11-18T03:46:17;2.80;;;2.00;;
41897;SDS011;27576;53.366;-1.498;2023-11-18T03:48:43;4.25;;;2.20;;
41897;SDS011;27576;53.366;-1.498;2023-11-18T03:51:09;2.78;;;2.13;;
41897;SDS011;27576;53.366;-1.498;2023-11-18T03:53:34;2.20;;;2.00;;
41897;SDS011;27576;53.366;-1.498;2023-11-18T03:56:00;2.85;;;2.05;;
41897;SDS011;27576;53.366;-1.498;2023-11-18T03:58:27;3.80;;;2.00;;
41897;SDS011;27576;53.366;-1.498;2023-11-18T04:00:53;2.90;;;2.30;;
41897;SDS011;27576;53.366;-1.498;2023-11-18T04:03:18;3.55;;;2.00;;
41897;SDS011;27576;53.366;-1.498;2023-11-18T04:05:44;2.65;;;1.98;;
41897;SDS011;27576;53.366;-1.498;2023-11-18T04:08:09;3.58;;;2.30;;
41897;SDS011;27576;53.366;-1.498;2023-11-18T04:10:36;2.83;;;2.13;;
41897;SDS011;27576;53.366;-1.498;2023-11-18T04:13:02;2.05;;;1.88;;
41897;SDS011;27576;53.366;-1.498;2023-11-18T04:15:27;2.10;;;1.85;;
41897;SDS011;27576;53.366;-1.498;2023-11-18T04:17:53;1.80;;;1.70;;
41897;SDS011;27576;53.366;-1.498;2023-11-18T04:20:18;1.95;;;1.85;;
41897;SDS011;27576;53.366;-1.498;2023-11-18T04:22:44;2.17;;;1.90;;
41897;SDS011;27576;53.366;-1.498;2023-11-18T04:25:10;2.05;;;1.77;;
41897;SDS011;27576;53.366;-1.498;2023-11-18T04:27:39;1.92;;;1.83;;
41897;SDS011;27576;53.366;-1.498;2023-11-18T04:30:05;2.30;;;2.10;;
41897;SDS011;27576;53.366;-1.498;2023-11-18T04:32:31;2.70;;;2.10;;
41897;SDS011;27576;53.366;-1.498;2023-11-18T04:35:00;2.00;;;1.90;;
41897;SDS011;27576;53.366;-1.498;2023-11-18T04:37:34;2.10;;;1.90;;
41897;SDS011;27576;53.366;-1.498;2023-11-18T04:40:07;2.38;;;2.10;;
41897;SDS011;27576;53.366;-1.498;2023-11-18T04:42:34;2.38;;;2.17;;
41897;SDS011;27576;53.366;-1.498;2023-11-18T04:45:00;2.42;;;2.22;;
41897;SDS011;27576;53.366;-1.498;2023-11-18T04:47:25;2.55;;;2.20;;
41897;SDS011;27576;53.366;-1.498;2023-11-18T04:49:51;3.97;;;2.60;;
41897;SDS011;27576;53.366;-1.498;2023-11-18T04:52:17;3.05;;;2.75;;
41897;SDS011;27576;53.366;-1.498;2023-11-18T04:54:42;3.47;;;2.83;;
41897;SDS011;27576;53.366;-1.498;2023-11-18T04:57:08;2.90;;;2.70;;
41897;SDS011;27576;53.366;-1.498;2023-11-18T04:59:34;3.75;;;2.88;;
41897;SDS011;27576;53.366;-1.498;2023-11-18T05:01:59;2.65;;;2.45;;
41897;SDS011;27576;53.366;-1.498;2023-11-18T05:04:27;3.63;;;3.10;;
41897;SDS011;27576;53.366;-1.498;2023-11-18T05:06:52;3.20;;;3.00;;
41897;SDS011;27576;53.366;-1.498;2023-11-18T05:09:18;3.00;;;2.80;;
41897;SDS011;27576;53.366;-1.498;2023-11-18T05:11:43;3.03;;;2.83;;
41897;SDS011;27576;53.366;-1.498;2023-11-18T05:14:09;3.70;;;3.00;;
41897;SDS011;27576;53.366;-1.498;2023-11-18T05:16:36;3.30;;;3.00;;
41897;SDS011;27576;53.366;-1.498;2023-11-18T05:19:01;2.70;;;2.50;;
41897;SDS011;27576;53.366;-1.498;2023-11-18T05:21:26;3.30;;;3.00;;
41897;SDS011;27576;53.366;-1.498;2023-11-18T05:23:52;3.50;;;3.20;;
41897;SDS011;27576;53.366;-1.498;2023-11-18T05:26:17;3.88;;;3.45;;
41897;SDS011;27576;53.366;-1.498;2023-11-18T05:28:43;3.63;;;3.33;;
41897;SDS011;27576;53.366;-1.498;2023-11-18T05:31:10;3.60;;;3.30;;
41897;SDS011;27576;53.366;-1.498;2023-11-18T05:33:35;3.55;;;3.25;;
41897;SDS011;27576;53.366;-1.498;2023-11-18T05:36:01;3.38;;;3.08;;
41897;SDS011;27576;53.366;-1.498;2023-11-18T05:38:30;3.80;;;3.50;;
41897;SDS011;27576;53.366;-1.498;2023-11-18T05:40:59;3.60;;;3.03;;
41897;SDS011;27576;53.366;-1.498;2023-11-18T05:43:28;3.83;;;3.53;;
41897;SDS011;27576;53.366;-1.498;2023-11-18T05:46:01;3.92;;;3.50;;
41897;SDS011;27576;53.366;-1.498;2023-11-18T05:48:45;3.50;;;3.20;;
41897;SDS011;27576;53.366;-1.498;2023-11-18T05:51:10;3.80;;;3.50;;
41897;SDS011;27576;53.366;-1.498;2023-11-18T05:53:42;3.50;;;3.30;;
41897;SDS011;27576;53.366;-1.498;2023-11-18T05:56:10;4.15;;;3.85;;
41897;SDS011;27576;53.366;-1.498;2023-11-18T05:58:36;4.32;;;3.90;;
41897;SDS011;27576;53.366;-1.498;2023-11-18T06:01:03;4.97;;;4.55;;
41897;SDS011;27576;53.366;-1.498;2023-11-18T06:03:30;3.90;;;3.60;;
41897;SDS011;27576;53.366;-1.498;2023-11-18T06:05:55;3.92;;;3.63;;
41897;SDS011;27576;53.366;-1.498;2023-11-18T06:08:21;4.47;;;3.97;;
41897;SDS011;27576;53.366;-1.498;2023-11-18T06:10:47;4.68;;;4.25;;
41897;SDS011;27576;53.366;-1.498;2023-11-18T06:13:14;4.82;;;3.92;;
41897;SDS011;27576;53.366;-1.498;2023-11-18T06:15:41;3.90;;;3.60;;
41897;SDS011;27576;53.366;-1.498;2023-11-18T06:18:08;4.80;;;3.80;;
41897;SDS011;27576;53.366;-1.498;2023-11-18T06:20:34;4.03;;;3.72;;
41897;SDS011;27576;53.366;-1.498;2023-11-18T06:23:00;4.25;;;3.85;;
41897;SDS011;27576;53.366;-1.498;2023-11-18T06:25:26;3.88;;;3.47;;
41897;SDS011;27576;53.366;-1.498;2023-11-18T06:27:51;5.75;;;4.40;;
41897;SDS011;27576;53.366;-1.498;2023-11-18T06:30:19;4.93;;;4.22;;
41897;SDS011;27576;53.366;-1.498;2023-11-18T06:32:45;3.85;;;3.45;;
41897;SDS011;27576;53.366;-1.498;2023-11-18T06:35:14;3.25;;;2.95;;
41897;SDS011;27576;53.366;-1.498;2023-11-18T06:37:40;3.78;;;3.38;;
41897;SDS011;27576;53.366;-1.498;2023-11-18T06:40:06;3.47;;;3.17;;
41897;SDS011;27576;53.366;-1.498;2023-11-18T06:42:41;3.95;;;3.30;;
41897;SDS011;27576;53.366;-1.498;2023-11-18T06:45:07;3.55;;;3.22;;
41897;SDS011;27576;53.366;-1.498;2023-11-18T06:47:34;3.35;;;3.05;;
41897;SDS011;27576;53.366;-1.498;2023-11-18T06:50:01;2.67;;;2.35;;
41897;SDS011;27576;53.366;-1.498;2023-11-18T06:52:27;3.00;;;2.67;;
41897;SDS011;27576;53.366;-1.498;2023-11-18T06:54:53;2.55;;;2.35;;
41897;SDS011;27576;53.366;-1.498;2023-11-18T06:57:19;2.35;;;2.20;;
41897;SDS011;27576;53.366;-1.498;2023-11-18T06:59:45;3.67;;;3.33;;
41897;SDS011;27576;53.366;-1.498;2023-11-18T07:02:11;4.00;;;3.28;;
41897;SDS011;27576;53.366;-1.498;2023-11-18T07:04:36;3.50;;;3.20;;
41897;SDS011;27576;53.366;-1.498;2023-11-18T07:07:03;2.88;;;2.67;;
41897;SDS011;27576;53.366;-1.498;2023-11-18T07:09:29;4.93;;;3.70;;
41897;SDS011;27576;53.366;-1.498;2023-11-18T07:11:54;4.65;;;3.83;;
41897;SDS011;27576;53.366;-1.498;2023-11-18T07:14:21;4.63;;;3.33;;
41897;SDS011;27576;53.366;-1.498;2023-11-18T07:16:46;4.38;;;3.65;;
41897;SDS011;27576;53.366;-1.498;2023-11-18T07:19:12;4.82;;;3.53;;
41897;SDS011;27576;53.366;-1.498;2023-11-18T07:21:45;4.75;;;3.78;;
41897;SDS011;27576;53.366;-1.498;2023-11-18T07:24:11;4.47;;;4.00;;
41897;SDS011;27576;53.366;-1.498;2023-11-18T07:26:37;3.90;;;3.50;;
41897;SDS011;27576;53.366;-1.498;2023-11-18T07:29:02;4.28;;;3.80;;
41897;SDS011;27576;53.366;-1.498;2023-11-18T07:31:28;5.05;;;4.35;;
41897;SDS011;27576;53.366;-1.498;2023-11-18T07:33:54;5.82;;;5.22;;
41897;SDS011;27576;53.366;-1.498;2023-11-18T07:36:19;6.40;;;4.65;;
41897;SDS011;27576;53.366;-1.498;2023-11-18T07:38:45;4.35;;;3.95;;
41897;SDS011;27576;53.366;-1.498;2023-11-18T07:41:12;6.07;;;4.80;;
41897;SDS011;27576;53.366;-1.498;2023-11-18T07:43:49;8.60;;;4.88;;
41897;SDS011;27576;53.366;-1.498;2023-11-18T07:46:21;6.10;;;4.68;;
41897;SDS011;27576;53.366;-1.498;2023-11-18T07:48:47;7.50;;;5.75;;
41897;SDS011;27576;53.366;-1.498;2023-11-18T07:51:20;5.35;;;4.55;;
41897;SDS011;27576;53.366;-1.498;2023-11-18T07:53:49;6.22;;;4.22;;
41897;SDS011;27576;53.366;-1.498;2023-11-18T07:56:15;5.68;;;4.35;;
41897;SDS011;27576;53.366;-1.498;2023-11-18T07:58:44;7.15;;;5.40;;
41897;SDS011;27576;53.366;-1.498;2023-11-18T08:01:13;7.03;;;4.28;;
41897;SDS011;27576;53.366;-1.498;2023-11-18T08:03:41;4.63;;;3.75;;
41897;SDS011;27576;53.366;-1.498;2023-11-18T08:06:09;6.43;;;4.68;;
41897;SDS011;27576;53.366;-1.498;2023-11-18T08:08:35;6.90;;;5.60;;
41897;SDS011;27576;53.366;-1.498;2023-11-18T08:11:06;7.95;;;5.60;;
41897;SDS011;27576;53.366;-1.498;2023-11-18T08:13:35;9.80;;;6.47;;
41897;SDS011;27576;53.366;-1.498;2023-11-18T08:16:00;10.45;;;6.30;;
41897;SDS011;27576;53.366;-1.498;2023-11-18T08:18:26;15.32;;;8.25;;
41897;SDS011;27576;53.366;-1.498;2023-11-18T08:20:52;8.60;;;6.10;;
41897;SDS011;27576;53.366;-1.498;2023-11-18T08:23:18;10.63;;;7.40;;
41897;SDS011;27576;53.366;-1.498;2023-11-18T08:25:44;9.85;;;6.28;;
41897;SDS011;27576;53.366;-1.498;2023-11-18T08:28:11;12.75;;;7.20;;
41897;SDS011;27576;53.366;-1.498;2023-11-18T08:30:39;13.93;;;7.38;;
41897;SDS011;27576;53.366;-1.498;2023-11-18T08:33:05;13.45;;;6.60;;
41897;SDS011;27576;53.366;-1.498;2023-11-18T08:35:33;15.90;;;8.10;;
41897;SDS011;27576;53.366;-1.498;2023-11-18T08:37:59;14.70;;;8.30;;
41897;SDS011;27576;53.366;-1.498;2023-11-18T08:40:26;17.08;;;8.32;;
41897;SDS011;27576;53.366;-1.498;2023-11-18T08:42:52;17.05;;;9.80;;
41897;SDS011;27576;53.366;-1.498;2023-11-18T08:45:21;20.08;;;10.65;;
41897;SDS011;27576;53.366;-1.498;2023-11-18T08:47:52;19.25;;;12.15;;
41897;SDS011;27576;53.366;-1.498;2023-11-18T08:50:18;22.98;;;11.70;;
41897;SDS011;27576;53.366;-1.498;2023-11-18T08:52:44;18.30;;;9.70;;
41897;SDS011;27576;53.366;-1.498;2023-11-18T08:55:15;18.98;;;9.88;;
41897;SDS011;27576;53.366;-1.498;2023-11-18T08:57:46;18.17;;;9.73;;
41897;SDS011;27576;53.366;-1.498;2023-11-18T09:00:28;22.95;;;10.90;;
41897;SDS011;27576;53.366;-1.498;2023-11-18T09:03:13;19.08;;;8.95;;
41897;SDS011;27576;53.366;-1.498;2023-11-18T09:05:56;17.73;;;7.82;;
41897;SDS011;27576;53.366;-1.498;2023-11-18T09:08:27;19.98;;;9.00;;
41897;SDS011;27576;53.366;-1.498;2023-11-18T09:11:00;14.85;;;7.45;;
41897;SDS011;27576;53.366;-1.498;2023-11-18T09:13:27;17.30;;;8.65;;
41897;SDS011;27576;53.366;-1.498;2023-11-18T09:15:56;10.75;;;6.55;;
41897;SDS011;27576;53.366;-1.498;2023-11-18T09:18:25;16.27;;;8.82;;
41897;SDS011;27576;53.366;-1.498;2023-11-18T09:20:52;19.40;;;8.82;;
41897;SDS011;27576;53.366;-1.498;2023-11-18T09:23:20;16.92;;;9.13;;
41897;SDS011;27576;53.366;-1.498;2023-11-18T09:25:48;19.98;;;10.15;;
41897;SDS011;27576;53.366;-1.498;2023-11-18T09:28:15;18.90;;;9.60;;
41897;SDS011;27576;53.366;-1.498;2023-11-18T09:30:43;19.92;;;9.80;;
41897;SDS011;27576;53.366;-1.498;2023-11-18T09:33:22;19.25;;;9.88;;
41897;SDS011;27576;53.366;-1.498;2023-11-18T09:36:07;22.70;;;11.25;;
41897;SDS011;27576;53.366;-1.498;2023-11-18T09:38:36;23.27;;;11.85;;
41897;SDS011;27576;53.366;-1.498;2023-11-18T09:41:05;21.25;;;10.52;;
41897;SDS011;27576;53.366;-1.498;2023-11-18T09:43:35;25.10;;;11.70;;
41897;SDS011;27576;53.366;-1.498;2023-11-18T09:46:07;28.45;;;12.77;;
41897;SDS011;27576;53.366;-1.498;2023-11-18T09:51:21;25.23;;;12.20;;
41897;SDS011;27576;53.366;-1.498;2023-11-18T09:53:52;25.80;;;12.88;;
41897;SDS011;27576;53.366;-1.498;2023-11-18T09:59:10;27.45;;;13.20;;
41897;SDS011;27576;53.366;-1.498;2023-11-18T10:01:40;24.70;;;12.52;;
41897;SDS011;27576;53.366;-1.498;2023-11-18T10:04:09;26.55;;;12.52;;
41897;SDS011;27576;53.366;-1.498;2023-11-18T10:06:36;28.40;;;13.23;;
41897;SDS011;27576;53.366;-1.498;2023-11-18T10:09:04;26.95;;;11.90;;
41897;SDS011;27576;53.366;-1.498;2023-11-18T10:11:41;25.42;;;11.63;;
41897;SDS011;27576;53.366;-1.498;2023-11-18T10:14:07;22.98;;;11.93;;
41897;SDS011;27576;53.366;-1.498;2023-11-18T10:16:33;28.05;;;13.52;;
41897;SDS011;27576;53.366;-1.498;2023-11-18T10:18:59;21.27;;;10.40;;
41897;SDS011;27576;53.366;-1.498;2023-11-18T10:21:36;20.70;;;10.85;;
41897;SDS011;27576;53.366;-1.498;2023-11-18T10:24:08;23.50;;;11.38;;
41897;SDS011;27576;53.366;-1.498;2023-11-18T10:27:00;24.88;;;11.77;;
41897;SDS011;27576;53.366;-1.498;2023-11-18T10:29:25;23.90;;;11.80;;
41897;SDS011;27576;53.366;-1.498;2023-11-18T10:32:06;31.50;;;16.35;;
41897;SDS011;27576;53.366;-1.498;2023-11-18T10:34:44;29.88;;;15.30;;
41897;SDS011;27576;53.366;-1.498;2023-11-18T10:37:10;30.38;;;15.32;;
41897;SDS011;27576;53.366;-1.498;2023-11-18T10:39:36;36.95;;;18.02;;
41897;SDS011;27576;53.366;-1.498;2023-11-18T10:42:02;31.05;;;17.38;;
41897;SDS011;27576;53.366;-1.498;2023-11-18T10:44:28;37.88;;;17.65;;
41897;SDS011;27576;53.366;-1.498;2023-11-18T10:46:54;32.20;;;18.23;;
41897;SDS011;27576;53.366;-1.498;2023-11-18T10:49:23;27.73;;;15.98;;
41897;SDS011;27576;53.366;-1.498;2023-11-18T10:51:50;28.42;;;15.68;;
41897;SDS011;27576;53.366;-1.498;2023-11-18T10:54:16;18.20;;;10.68;;
41897;SDS011;27576;53.366;-1.498;2023-11-18T10:56:46;10.90;;;5.38;;
41897;SDS011;27576;53.366;-1.498;2023-11-18T10:59:12;4.38;;;3.97;;
41897;SDS011;27576;53.366;-1.498;2023-11-18T11:01:41;7.00;;;3.90;;
41897;SDS011;27576;53.366;-1.498;2023-11-18T11:04:10;5.97;;;3.70;;
41897;SDS011;27576;53.366;-1.498;2023-11-18T11:06:48;6.00;;;3.72;;
41897;SDS011;27576;53.366;-1.498;2023-11-18T11:09:18;6.88;;;3.50;;
41897;SDS011;27576;53.366;-1.498;2023-11-18T11:11:59;4.43;;;2.90;;
41897;SDS011;27576;53.366;-1.498;2023-11-18T11:14:34;3.70;;;2.67;;
41897;SDS011;27576;53.366;-1.498;2023-11-18T11:17:06;2.53;;;2.17;;
41897;SDS011;27576;53.366;-1.498;2023-11-18T11:19:46;2.97;;;2.65;;
41897;SDS011;27576;53.366;-1.498;2023-11-18T11:22:30;4.20;;;2.80;;
41897;SDS011;27576;53.366;-1.498;2023-11-18T11:25:14;4.00;;;2.40;;
41897;SDS011;27576;53.366;-1.498;2023-11-18T11:27:55;6.40;;;2.53;;
41897;SDS011;27576;53.366;-1.498;2023-11-18T11:30:36;4.32;;;2.15;;
41897;SDS011;27576;53.366;-1.498;2023-11-18T11:33:23;3.88;;;2.30;;
41897;SDS011;27576;53.366;-1.498;2023-11-18T11:35:55;5.28;;;1.90;;
41897;SDS011;27576;53.366;-1.498;2023-11-18T11:38:24;5.05;;;2.28;;
41897;SDS011;27576;53.366;-1.498;2023-11-18T11:40:51;5.82;;;1.95;;
41897;SDS011;27576;53.366;-1.498;2023-11-18T11:43:20;4.72;;;1.63;;
41897;SDS011;27576;53.366;-1.498;2023-11-18T11:45:53;5.20;;;1.98;;
41897;SDS011;27576;53.366;-1.498;2023-11-18T11:48:20;5.45;;;1.95;;
41897;SDS011;27576;53.366;-1.498;2023-11-18T11:51:03;5.93;;;1.92;;
41897;SDS011;27576;53.366;-1.498;2023-11-18T11:53:39;2.50;;;1.75;;
41897;SDS011;27576;53.366;-1.498;2023-11-18T11:56:10;4.35;;;2.08;;
41897;SDS011;27576;53.366;-1.498;2023-11-18T11:58:39;4.55;;;2.13;;
41897;SDS011;27576;53.366;-1.498;2023-11-18T12:01:15;8.18;;;2.28;;
41897;SDS011;27576;53.366;-1.498;2023-11-18T12:03:48;4.32;;;2.00;;
41897;SDS011;27576;53.366;-1.498;2023-11-18T12:06:18;2.45;;;1.88;;
41897;SDS011;27576;53.366;-1.498;2023-11-18T12:08:48;9.77;;;2.63;;
41897;SDS011;27576;53.366;-1.498;2023-11-18T12:11:18;4.10;;;1.80;;
41897;SDS011;27576;53.366;-1.498;2023-11-18T12:17:01;5.30;;;2.30;;
41897;SDS011;27576;53.366;-1.498;2023-11-18T12:19:38;7.15;;;2.33;;
41897;SDS011;27576;53.366;-1.498;2023-11-18T12:22:15;4.05;;;2.20;;
41897;SDS011;27576;53.366;-1.498;2023-11-18T12:24:46;5.60;;;2.08;;
41897;SDS011;27576;53.366;-1.498;2023-11-18T12:35:57;3.75;;;1.98;;
41897;SDS011;27576;53.366;-1.498;2023-11-18T12:41:37;6.15;;;2.00;;
41897;SDS011;27576;53.366;-1.498;2023-11-18T12:47:03;3.42;;;1.35;;
41897;SDS011;27576;53.366;-1.498;2023-11-18T12:49:55;4.35;;;1.60;;
41897;SDS011;27576;53.366;-1.498;2023-11-18T12:52:21;5.80;;;2.10;;
41897;SDS011;27576;53.366;-1.498;2023-11-18T12:54:48;9.60;;;2.50;;
41897;SDS011;27576;53.366;-1.498;2023-11-18T12:57:19;6.07;;;1.52;;
41897;SDS011;27576;53.366;-1.498;2023-11-18T12:59:48;8.75;;;2.17;;
41897;SDS011;27576;53.366;-1.498;2023-11-18T13:02:15;7.55;;;2.45;;
41897;SDS011;27576;53.366;-1.498;2023-11-18T13:04:44;5.28;;;2.47;;
41897;SDS011;27576;53.366;-1.498;2023-11-18T13:07:13;5.60;;;2.25;;
41897;SDS011;27576;53.366;-1.498;2023-11-18T13:09:43;4.75;;;1.52;;
41897;SDS011;27576;53.366;-1.498;2023-11-18T13:12:10;5.50;;;1.60;;
41897;SDS011;27576;53.366;-1.498;2023-11-18T13:14:40;5.93;;;1.70;;
41897;SDS011;27576;53.366;-1.498;2023-11-18T13:17:10;4.78;;;1.73;;
41897;SDS011;27576;53.366;-1.498;2023-11-18T13:19:37;5.88;;;1.73;;
41897;SDS011;27576;53.366;-1.498;2023-11-18T13:22:08;6.15;;;2.03;;
41897;SDS011;27576;53.366;-1.498;2023-11-18T13:24:34;8.77;;;2.22;;
41897;SDS011;27576;53.366;-1.498;2023-11-18T13:27:15;12.05;;;2.42;;
41897;SDS011;27576;53.366;-1.498;2023-11-18T13:29:46;8.73;;;2.20;;
41897;SDS011;27576;53.366;-1.498;2023-11-18T13:32:15;7.35;;;2.20;;
41897;SDS011;27576;53.366;-1.498;2023-11-18T13:34:41;8.70;;;2.17;;
41897;SDS011;27576;53.366;-1.498;2023-11-18T13:37:07;7.15;;;1.73;;
41897;SDS011;27576;53.366;-1.498;2023-11-18T13:39:36;12.60;;;2.50;;
41897;SDS011;27576;53.366;-1.498;2023-11-18T13:42:22;12.63;;;2.50;;
41897;SDS011;27576;53.366;-1.498;2023-11-18T13:44:49;7.13;;;2.35;;
41897;SDS011;27576;53.366;-1.498;2023-11-18T13:47:18;8.48;;;2.42;;
41897;SDS011;27576;53.366;-1.498;2023-11-18T13:49:44;10.07;;;2.40;;
41897;SDS011;27576;53.366;-1.498;2023-11-18T13:52:12;16.45;;;2.60;;
41897;SDS011;27576;53.366;-1.498;2023-11-18T13:54:40;12.57;;;2.88;;
41897;SDS011;27576;53.366;-1.498;2023-11-18T13:57:09;7.53;;;2.38;;
41897;SDS011;27576;53.366;-1.498;2023-11-18T13:59:36;9.70;;;2.75;;
41897;SDS011;27576;53.366;-1.498;2023-11-18T14:02:02;10.25;;;3.10;;
41897;SDS011;27576;53.366;-1.498;2023-11-18T14:04:29;13.43;;;2.95;;
41897;SDS011;27576;53.366;-1.498;2023-11-18T14:06:58;12.88;;;3.00;;
41897;SDS011;27576;53.366;-1.498;2023-11-18T14:09:27;10.35;;;2.50;;
41897;SDS011;27576;53.366;-1.498;2023-11-18T14:11:54;12.73;;;3.70;;
41897;SDS011;27576;53.366;-1.498;2023-11-18T14:14:21;10.77;;;3.15;;
41897;SDS011;27576;53.366;-1.498;2023-11-18T14:16:48;11.20;;;3.40;;
41897;SDS011;27576;53.366;-1.498;2023-11-18T14:19:14;12.63;;;3.00;;
41897;SDS011;27576;53.366;-1.498;2023-11-18T14:21:40;19.27;;;3.80;;
41897;SDS011;27576;53.366;-1.498;2023-11-18T14:24:06;12.68;;;3.10;;
41897;SDS011;27576;53.366;-1.498;2023-11-18T14:26:36;11.38;;;3.25;;
41897;SDS011;27576;53.366;-1.498;2023-11-18T14:29:04;13.75;;;3.35;;
41897;SDS011;27576;53.366;-1.498;2023-11-18T14:31:31;13.30;;;3.35;;
41897;SDS011;27576;53.366;-1.498;2023-11-18T14:33:56;14.55;;;4.00;;
41897;SDS011;27576;53.366;-1.498;2023-11-18T14:36:24;15.38;;;3.72;;
41897;SDS011;27576;53.366;-1.498;2023-11-18T14:38:50;17.95;;;3.63;;
41897;SDS011;27576;53.366;-1.498;2023-11-18T14:41:15;14.45;;;3.25;;
41897;SDS011;27576;53.366;-1.498;2023-11-18T14:43:41;11.10;;;3.10;;
41897;SDS011;27576;53.366;-1.498;2023-11-18T14:46:07;17.45;;;3.90;;
41897;SDS011;27576;53.366;-1.498;2023-11-18T14:48:33;10.90;;;3.10;;
41897;SDS011;27576;53.366;-1.498;2023-11-18T14:50:58;12.05;;;2.80;;
41897;SDS011;27576;53.366;-1.498;2023-11-18T14:53:25;12.73;;;3.33;;
41897;SDS011;27576;53.366;-1.498;2023-11-18T14:55:50;14.40;;;3.78;;
41897;SDS011;27576;53.366;-1.498;2023-11-18T14:58:16;12.43;;;3.90;;